createdAt,value
2019-01-07T00:00:26.626Z,2.85
2019-01-07T00:01:41.296Z,2.87
2019-01-07T00:02:26.650Z,2.87
2019-01-07T00:03:26.662Z,2.79
2019-01-07T00:04:26.678Z,2.63
2019-01-07T00:05:26.689Z,2.53
2019-01-07T00:06:26.702Z,2.53
2019-01-07T00:07:26.818Z,2.39
2019-01-07T00:08:26.790Z,2.48
2019-01-07T00:09:26.743Z,2.67
2019-01-07T00:10:26.775Z,2.52
2019-01-07T00:13:26.797Z,2.52
2019-01-07T00:14:41.477Z,2.46
2019-01-07T00:15:26.823Z,2.45
2019-01-07T00:16:41.500Z,2.48
2019-01-07T00:17:26.851Z,2.45
2019-01-07T00:18:26.866Z,2.49
2019-01-07T00:19:26.927Z,2.56
2019-01-07T00:20:26.889Z,2.49
2019-01-07T00:21:26.905Z,2.61
2019-01-07T00:22:26.919Z,2.61
2019-01-07T00:23:26.932Z,2.52
2019-01-07T00:24:26.943Z,2.53
2019-01-07T00:25:26.961Z,2.66
2019-01-07T00:26:26.972Z,2.61
2019-01-07T00:27:26.743Z,2.63
2019-01-07T00:28:27.006Z,2.69
2019-01-07T00:29:41.676Z,2.59
2019-01-07T00:30:27.023Z,2.71
2019-01-07T00:31:27.044Z,2.69
2019-01-07T00:32:27.050Z,2.67
2019-01-07T00:33:27.063Z,2.61
2019-01-07T00:34:27.085Z,2.71
2019-01-07T00:35:27.091Z,2.72
2019-01-07T00:36:27.104Z,2.69
2019-01-07T00:38:27.151Z,2.6
2019-01-07T00:39:27.147Z,2.59
2019-01-07T00:40:27.158Z,2.56
2019-01-07T00:41:27.173Z,2.45
2019-01-07T00:42:27.190Z,2.53
2019-01-07T00:43:27.198Z,2.52
2019-01-07T00:44:27.218Z,2.57
2019-01-07T00:45:27.226Z,2.6
2019-01-07T00:46:27.239Z,2.57
2019-01-07T00:47:27.250Z,2.57
2019-01-07T00:48:41.929Z,2.56
2019-01-07T00:49:27.277Z,2.67
2019-01-07T00:50:27.293Z,2.72
2019-01-07T00:51:27.304Z,2.75
2019-01-07T00:52:27.322Z,2.74
2019-01-07T00:53:27.334Z,2.78
2019-01-07T00:54:27.352Z,2.81
2019-01-07T00:55:27.363Z,2.75
2019-01-07T00:56:27.370Z,2.84
2019-01-07T00:57:27.393Z,2.67
2019-01-07T00:58:27.451Z,2.72
2019-01-07T00:59:27.515Z,2.64
2019-01-07T01:00:27.429Z,2.69
2019-01-07T01:01:27.446Z,2.61
2019-01-07T01:02:27.453Z,2.61
2019-01-07T01:03:27.468Z,2.59
2019-01-07T01:04:42.140Z,2.49
2019-01-07T01:05:27.492Z,2.54
2019-01-07T01:06:27.503Z,2.45
2019-01-07T01:07:27.516Z,2.49
2019-01-07T01:08:27.532Z,2.48
2019-01-07T01:09:27.578Z,2.46
2019-01-07T01:10:27.558Z,2.46
2019-01-07T01:11:27.571Z,2.43
2019-01-07T01:12:27.583Z,2.56
2019-01-07T01:13:27.597Z,2.54
2019-01-07T01:14:42.276Z,2.49
2019-01-07T01:15:27.623Z,2.59
2019-01-07T01:16:27.643Z,2.71
2019-01-07T01:17:27.653Z,2.69
2019-01-07T01:18:27.664Z,2.78
2019-01-07T01:19:27.683Z,2.74
2019-01-07T01:20:42.358Z,2.79
2019-01-07T01:21:27.702Z,2.72
2019-01-07T01:22:27.718Z,2.81
2019-01-07T01:23:27.732Z,2.81
2019-01-07T01:24:27.746Z,2.63
2019-01-07T01:25:27.767Z,2.63
2019-01-07T01:26:27.769Z,2.56
2019-01-07T01:27:27.782Z,2.66
2019-01-07T01:28:27.797Z,2.61
2019-01-07T01:29:27.810Z,2.67
2019-01-07T01:30:27.823Z,2.59
2019-01-07T01:31:27.837Z,2.53
2019-01-07T01:33:27.868Z,2.48
2019-01-07T01:34:27.879Z,2.53
2019-01-07T01:35:27.964Z,2.46
2019-01-07T01:36:42.567Z,2.6
2019-01-07T01:37:27.965Z,2.66
2019-01-07T01:38:27.931Z,2.66
2019-01-07T01:39:27.940Z,2.69
2019-01-07T01:40:27.955Z,2.74
2019-01-07T01:41:27.969Z,2.78
2019-01-07T01:42:27.980Z,2.78
2019-01-07T01:43:27.998Z,2.81
2019-01-07T01:44:28.033Z,2.81
2019-01-07T01:45:28.023Z,2.67
2019-01-07T01:47:42.713Z,2.61
2019-01-07T01:48:42.725Z,2.53
2019-01-07T01:49:28.075Z,2.61
2019-01-07T01:50:28.089Z,2.53
2019-01-07T01:51:42.763Z,2.52
2019-01-07T01:52:28.121Z,2.54
2019-01-07T01:53:28.130Z,2.64
2019-01-07T01:54:28.139Z,2.72
2019-01-07T01:55:28.154Z,2.74
2019-01-07T01:56:28.166Z,2.64
2019-01-07T01:57:27.933Z,2.69
2019-01-07T01:58:28.196Z,2.66
2019-01-07T01:59:28.247Z,2.72
2019-01-07T02:00:28.233Z,2.57
2019-01-07T02:01:28.232Z,2.57
2019-01-07T02:02:42.913Z,2.56
2019-01-07T02:03:28.259Z,2.53
2019-01-07T02:04:42.935Z,2.49
2019-01-07T02:05:28.288Z,2.52
2019-01-07T02:06:28.299Z,2.35
2019-01-07T02:07:28.311Z,2.48
2019-01-07T02:08:28.331Z,2.34
2019-01-07T02:10:28.352Z,2.41
2019-01-07T02:11:28.370Z,2.39
2019-01-07T02:12:28.377Z,2.48
2019-01-07T02:13:28.394Z,2.52
2019-01-07T02:14:28.411Z,2.52
2019-01-07T02:15:28.418Z,2.53
2019-01-07T02:17:28.444Z,2.6
2019-01-07T02:18:28.460Z,2.54
2019-01-07T02:19:28.471Z,2.59
2019-01-07T02:20:28.491Z,2.57
2019-01-07T02:21:28.498Z,2.54
2019-01-07T02:22:28.509Z,2.59
2019-01-07T02:23:43.185Z,2.54
2019-01-07T02:24:28.537Z,2.57
2019-01-07T02:25:28.553Z,2.54
2019-01-07T02:26:28.563Z,2.48
2019-01-07T02:27:28.580Z,2.43
2019-01-07T02:28:28.595Z,2.43
2019-01-07T02:29:28.609Z,2.34
2019-01-07T02:30:28.627Z,2.31
2019-01-07T02:31:28.645Z,2.36
2019-01-07T02:32:28.646Z,2.31
2019-01-07T02:33:28.657Z,2.38
2019-01-07T02:34:28.669Z,2.34
2019-01-07T02:35:28.759Z,2.42
2019-01-07T02:36:28.696Z,2.34
2019-01-07T02:37:43.373Z,2.36
2019-01-07T02:38:28.734Z,2.34
2019-01-07T02:39:43.398Z,2.36
2019-01-07T02:40:28.761Z,2.39
2019-01-07T02:41:28.767Z,2.31
2019-01-07T02:42:28.783Z,2.24
2019-01-07T02:44:28.809Z,2.28
2019-01-07T02:45:28.813Z,2.3
2019-01-07T02:46:28.835Z,2.39
2019-01-07T02:47:28.839Z,2.34
2019-01-07T02:48:28.853Z,2.3
2019-01-07T02:49:28.864Z,2.34
2019-01-07T02:50:28.881Z,2.31
2019-01-07T02:51:28.897Z,2.35
2019-01-07T02:52:28.911Z,2.49
2019-01-07T02:53:28.917Z,2.45
2019-01-07T02:54:28.933Z,2.46
2019-01-07T02:55:43.617Z,2.39
2019-01-07T02:56:28.957Z,2.43
2019-01-07T02:57:28.970Z,2.34
2019-01-07T02:58:28.983Z,2.34
2019-01-07T02:59:29.095Z,2.45
2019-01-07T03:00:29.011Z,2.38
2019-01-07T03:02:29.040Z,2.3
2019-01-07T03:03:29.056Z,2.45
2019-01-07T03:04:29.064Z,2.39
2019-01-07T03:05:29.082Z,2.43
2019-01-07T03:06:29.089Z,2.31
2019-01-07T03:07:29.107Z,2.27
2019-01-07T03:08:29.119Z,2.36
2019-01-07T03:09:29.238Z,2.36
2019-01-07T03:10:29.142Z,2.35
2019-01-07T03:11:43.818Z,2.16
2019-01-07T03:12:29.171Z,2.18
2019-01-07T03:13:29.181Z,2.23
2019-01-07T03:14:29.192Z,2.23
2019-01-07T03:15:29.281Z,2.06
2019-01-07T03:16:29.229Z,2.23
2019-01-07T03:17:29.236Z,2.21
2019-01-07T03:18:29.248Z,2.25
2019-01-07T03:19:29.259Z,2.07
2019-01-07T03:21:29.283Z,2.17
2019-01-07T03:22:29.299Z,2.1
2019-01-07T03:23:29.334Z,2.25
2019-01-07T03:24:29.323Z,2.18
2019-01-07T03:25:29.345Z,2.21
2019-01-07T03:26:44.015Z,2.34
2019-01-07T03:27:29.367Z,2.36
2019-01-07T03:28:29.383Z,2.3
2019-01-07T03:29:29.390Z,2.34
2019-01-07T03:30:29.425Z,2.43
2019-01-07T03:31:29.440Z,2.43
2019-01-07T03:32:29.459Z,2.45
2019-01-07T03:33:29.444Z,2.35
2019-01-07T03:34:29.463Z,2.41
2019-01-07T03:35:29.483Z,2.35
2019-01-07T03:36:29.237Z,2.41
2019-01-07T03:37:29.496Z,2.49
2019-01-07T03:38:29.512Z,2.45
2019-01-07T03:39:29.525Z,2.45
2019-01-07T03:40:29.533Z,2.45
2019-01-07T03:41:29.548Z,2.41
2019-01-07T03:42:29.559Z,2.38
2019-01-07T03:43:29.575Z,2.54
2019-01-07T03:44:44.259Z,2.45
2019-01-07T03:45:29.599Z,2.41
2019-01-07T03:46:29.616Z,2.38
2019-01-07T03:47:29.623Z,2.31
2019-01-07T03:48:29.639Z,2.31
2019-01-07T03:49:44.320Z,2.28
2019-01-07T03:50:44.333Z,2.35
2019-01-07T03:51:29.677Z,2.31
2019-01-07T03:52:29.691Z,2.42
2019-01-07T03:53:29.704Z,2.45
2019-01-07T03:54:29.722Z,2.38
2019-01-07T03:55:29.806Z,2.39
2019-01-07T03:56:29.751Z,2.41
2019-01-07T03:57:29.753Z,2.35
2019-01-07T03:58:44.435Z,2.36
2019-01-07T03:59:29.783Z,2.34
2019-01-07T04:00:29.801Z,2.41
2019-01-07T04:01:29.810Z,2.31
2019-01-07T04:02:29.837Z,2.3
2019-01-07T04:03:29.852Z,2.36
2019-01-07T04:05:29.867Z,2.38
2019-01-07T04:06:29.879Z,2.43
2019-01-07T04:09:29.912Z,2.43
2019-01-07T04:10:29.924Z,2.48
2019-01-07T04:11:29.940Z,2.45
2019-01-07T04:12:44.613Z,2.49
2019-01-07T04:13:29.974Z,2.46
2019-01-07T04:14:44.640Z,2.52
2019-01-07T04:15:29.991Z,2.49
2019-01-07T04:16:30.006Z,2.48
2019-01-07T04:17:30.021Z,2.31
2019-01-07T04:19:30.045Z,2.43
2019-01-07T04:20:30.056Z,2.48
2019-01-07T04:21:30.076Z,2.49
2019-01-07T04:22:30.083Z,2.49
2019-01-07T04:24:30.114Z,2.43
2019-01-07T04:25:30.127Z,2.36
2019-01-07T04:26:30.145Z,2.35
2019-01-07T04:27:44.809Z,2.41
2019-01-07T04:28:30.162Z,2.38
2019-01-07T04:29:30.177Z,2.39
2019-01-07T04:30:44.848Z,2.52
2019-01-07T04:31:30.267Z,2.43
2019-01-07T04:33:30.225Z,2.31
2019-01-07T04:34:30.242Z,2.36
2019-01-07T04:35:30.253Z,2.35
2019-01-07T04:36:30.368Z,2.39
2019-01-07T04:37:30.976Z,2.49
2019-01-07T04:38:30.294Z,2.48
2019-01-07T04:40:44.982Z,2.49
2019-01-07T04:41:30.335Z,2.52
2019-01-07T04:42:30.345Z,2.52
2019-01-07T04:43:30.375Z,2.53
2019-01-07T04:44:30.373Z,2.63
2019-01-07T04:45:30.390Z,2.49
2019-01-07T04:46:45.057Z,2.53
2019-01-07T04:47:30.427Z,2.48
2019-01-07T04:48:30.425Z,2.53
2019-01-07T04:50:30.447Z,2.49
2019-01-07T04:51:30.462Z,2.42
2019-01-07T04:52:30.477Z,2.42
2019-01-07T04:54:30.502Z,2.49
2019-01-07T04:55:30.515Z,2.48
2019-01-07T04:56:30.525Z,2.46
2019-01-07T04:57:30.560Z,2.54
2019-01-07T04:58:30.623Z,2.69
2019-01-07T04:59:30.573Z,2.54
2019-01-07T05:00:30.579Z,2.59
2019-01-07T05:01:45.255Z,2.53
2019-01-07T05:02:30.615Z,2.74
2019-01-07T05:03:30.617Z,2.56
2019-01-07T05:04:30.631Z,2.72
2019-01-07T05:05:30.648Z,2.66
2019-01-07T05:06:30.676Z,2.69
2019-01-07T05:07:30.680Z,2.67
2019-01-07T05:08:30.683Z,2.59
2019-01-07T05:09:30.699Z,2.69
2019-01-07T05:10:30.781Z,2.67
2019-01-07T05:11:30.733Z,2.63
2019-01-07T05:12:30.736Z,2.72
2019-01-07T05:13:45.411Z,2.69
2019-01-07T05:14:30.767Z,2.79
2019-01-07T05:15:30.781Z,2.72
2019-01-07T05:16:30.795Z,2.66
2019-01-07T05:17:30.800Z,2.81
2019-01-07T05:18:30.819Z,2.72
2019-01-07T05:19:30.840Z,2.67
2019-01-07T05:20:30.850Z,2.72
2019-01-07T05:21:30.856Z,2.74
2019-01-07T05:22:30.866Z,2.75
2019-01-07T05:23:30.885Z,2.71
2019-01-07T05:24:30.900Z,2.66
2019-01-07T05:25:30.907Z,2.71
2019-01-07T05:26:30.920Z,2.79
2019-01-07T05:27:30.949Z,2.66
2019-01-07T05:28:30.950Z,2.78
2019-01-07T05:29:30.957Z,2.77
2019-01-07T05:30:45.633Z,2.69
2019-01-07T05:31:30.999Z,2.69
2019-01-07T05:32:31.977Z,2.69
2019-01-07T05:33:45.672Z,2.74
2019-01-07T05:34:31.023Z,2.69
2019-01-07T05:35:31.041Z,2.78
2019-01-07T05:36:31.049Z,2.79
2019-01-07T05:38:31.082Z,2.78
2019-01-07T05:39:31.099Z,2.85
2019-01-07T05:40:31.103Z,2.87
2019-01-07T05:41:31.129Z,2.93
2019-01-07T05:42:31.129Z,2.9
2019-01-07T05:43:31.144Z,2.9
2019-01-07T05:45:30.918Z,2.9
2019-01-07T05:46:31.189Z,2.87
2019-01-07T05:47:31.194Z,2.85
2019-01-07T05:48:31.222Z,2.92
2019-01-07T05:49:45.885Z,2.93
2019-01-07T05:50:31.233Z,2.92
2019-01-07T05:52:31.261Z,2.82
2019-01-07T05:53:31.275Z,2.92
2019-01-07T05:54:31.287Z,3.02
2019-01-07T05:55:31.306Z,2.9
2019-01-07T05:57:31.330Z,2.95
2019-01-07T05:58:31.336Z,2.96
2019-01-07T05:59:31.376Z,2.93
2019-01-07T06:00:46.028Z,2.84
2019-01-07T06:01:46.041Z,2.96
2019-01-07T06:02:46.054Z,2.92
2019-01-07T06:03:31.417Z,2.93
2019-01-07T06:04:31.420Z,2.82
2019-01-07T06:05:46.094Z,2.95
2019-01-07T06:06:31.448Z,2.9
2019-01-07T06:07:31.457Z,2.9
2019-01-07T06:08:31.842Z,2.97
2019-01-07T06:09:31.484Z,2.9
2019-01-07T06:10:31.264Z,2.82
2019-01-07T06:11:31.507Z,2.97
2019-01-07T06:13:31.540Z,2.92
2019-01-07T06:14:31.551Z,2.97
2019-01-07T06:15:31.563Z,3
2019-01-07T06:16:31.578Z,3
2019-01-07T06:17:46.251Z,3.05
2019-01-07T06:19:31.616Z,3.02
2019-01-07T06:20:31.630Z,3.03
2019-01-07T06:21:46.306Z,3.08
2019-01-07T06:22:31.653Z,2.93
2019-01-07T06:23:31.669Z,2.9
2019-01-07T06:24:31.681Z,2.99
2019-01-07T06:25:31.756Z,3.03
2019-01-07T06:26:31.711Z,3.08
2019-01-07T06:27:31.721Z,2.96
2019-01-07T06:28:31.819Z,3.03
2019-01-07T06:29:31.755Z,3.05
2019-01-07T06:30:31.758Z,3.06
2019-01-07T06:31:31.526Z,3.03
2019-01-07T06:33:31.802Z,3.03
2019-01-07T06:34:31.814Z,3.02
2019-01-07T06:35:31.838Z,3.05
2019-01-07T06:36:48.779Z,2.93
2019-01-07T06:37:31.862Z,3
2019-01-07T06:38:31.866Z,3.08
2019-01-07T06:39:31.883Z,3.08
2019-01-07T06:40:31.899Z,3.18
2019-01-07T06:41:31.912Z,3.14
2019-01-07T06:42:31.919Z,3.03
2019-01-07T06:43:31.985Z,3.17
2019-01-07T06:44:31.945Z,3.02
2019-01-07T06:45:31.960Z,3.15
2019-01-07T06:47:31.989Z,3.14
2019-01-07T06:48:32.005Z,3.15
2019-01-07T06:49:32.012Z,3.15
2019-01-07T06:50:46.687Z,3.15
2019-01-07T06:51:32.041Z,3.15
2019-01-07T06:52:32.060Z,3.17
2019-01-07T06:53:32.065Z,3.17
2019-01-07T06:54:32.080Z,3.21
2019-01-07T06:55:32.091Z,3.11
2019-01-07T06:56:32.109Z,3.18
2019-01-07T06:57:32.119Z,3.15
2019-01-07T06:58:32.131Z,3.18
2019-01-07T06:59:32.144Z,3.15
2019-01-07T07:00:32.157Z,3.15
2019-01-07T07:01:32.176Z,3.14
2019-01-07T07:02:32.186Z,3.11
2019-01-07T07:03:32.208Z,3.24
2019-01-07T07:04:32.210Z,3.15
2019-01-07T07:05:46.887Z,3.18
2019-01-07T07:06:32.238Z,3.13
2019-01-07T07:07:32.254Z,3.2
2019-01-07T07:08:46.926Z,3.18
2019-01-07T07:09:32.279Z,3.2
2019-01-07T07:10:32.292Z,3.26
2019-01-07T07:11:32.302Z,3.2
2019-01-07T07:12:32.317Z,3.23
2019-01-07T07:13:32.340Z,3.17
2019-01-07T07:14:32.343Z,3.2
2019-01-07T07:15:32.363Z,3.18
2019-01-07T07:16:32.368Z,3.2
2019-01-07T07:19:32.408Z,3.26
2019-01-07T07:21:32.188Z,3.17
2019-01-07T07:22:32.450Z,3.17
2019-01-07T07:23:32.461Z,3.17
2019-01-07T07:24:47.167Z,3.32
2019-01-07T07:25:32.488Z,3.18
2019-01-07T07:26:32.509Z,3.23
2019-01-07T07:27:32.516Z,3.32
2019-01-07T07:28:32.530Z,3.4
2019-01-07T07:29:32.543Z,3.33
2019-01-07T07:30:32.996Z,3.35
2019-01-07T07:31:32.568Z,3.28
2019-01-07T07:32:32.585Z,3.29
2019-01-07T07:33:32.600Z,3.28
2019-01-07T07:35:34.251Z,3.21
2019-01-07T07:36:32.636Z,3.24
2019-01-07T07:37:32.655Z,3.31
2019-01-07T07:38:32.665Z,3.26
2019-01-07T07:39:32.682Z,3.2
2019-01-07T07:40:47.451Z,3.33
2019-01-07T07:41:32.703Z,3.28
2019-01-07T07:42:32.716Z,3.31
2019-01-07T07:43:32.731Z,3.35
2019-01-07T07:44:32.497Z,3.28
2019-01-07T07:45:32.756Z,3.31
2019-01-07T07:47:32.786Z,3.32
2019-01-07T07:48:32.834Z,3.31
2019-01-07T07:49:47.474Z,3.29
2019-01-07T07:50:32.824Z,3.33
2019-01-07T07:51:32.833Z,3.42
2019-01-07T07:52:32.603Z,3.35
2019-01-07T07:53:33.100Z,3.42
2019-01-07T07:54:32.876Z,3.4
2019-01-07T07:55:32.890Z,3.39
2019-01-07T07:56:47.564Z,3.5
2019-01-07T07:58:32.929Z,3.42
2019-01-07T07:59:32.939Z,3.42
2019-01-07T08:00:32.956Z,3.43
2019-01-07T08:01:32.985Z,3.42
2019-01-07T08:02:32.980Z,3.54
2019-01-07T08:03:32.993Z,3.52
2019-01-07T08:05:33.032Z,3.6
2019-01-07T08:06:47.700Z,3.61
2019-01-07T08:07:33.055Z,3.6
2019-01-07T08:09:47.738Z,3.57
2019-01-07T08:10:33.098Z,3.55
2019-01-07T08:11:47.767Z,3.58
2019-01-07T08:12:33.123Z,3.58
2019-01-07T08:13:33.135Z,3.61
2019-01-07T08:14:33.142Z,3.61
2019-01-07T08:15:33.161Z,3.73
2019-01-07T08:17:33.185Z,3.62
2019-01-07T08:18:33.202Z,3.57
2019-01-07T08:19:33.211Z,3.62
2019-01-07T08:20:33.227Z,3.61
2019-01-07T08:21:33.240Z,3.69
2019-01-07T08:22:33.257Z,3.62
2019-01-07T08:23:33.277Z,3.69
2019-01-07T08:24:33.288Z,3.69
2019-01-07T08:25:33.291Z,3.68
2019-01-07T08:26:33.328Z,3.7
2019-01-07T08:27:33.326Z,3.7
2019-01-07T08:28:33.398Z,3.75
2019-01-07T08:29:33.351Z,3.73
2019-01-07T08:30:33.364Z,3.76
2019-01-07T08:31:33.374Z,3.69
2019-01-07T08:32:33.386Z,3.78
2019-01-07T08:33:33.399Z,3.7
2019-01-07T08:34:33.412Z,3.76
2019-01-07T08:35:33.427Z,3.72
2019-01-07T08:37:33.468Z,3.84
2019-01-07T08:38:33.468Z,3.79
2019-01-07T08:39:48.145Z,3.91
2019-01-07T08:40:33.497Z,3.91
2019-01-07T08:41:33.508Z,3.94
2019-01-07T08:42:33.524Z,3.96
2019-01-07T08:43:48.250Z,4.02
2019-01-07T08:44:33.550Z,3.96
2019-01-07T08:45:33.562Z,3.98
2019-01-07T08:46:33.625Z,3.96
2019-01-07T08:47:34.835Z,3.98
2019-01-07T08:49:33.617Z,4.02
2019-01-07T08:50:34.716Z,3.96
2019-01-07T08:51:33.644Z,4.04
2019-01-07T08:52:33.661Z,4.02
2019-01-07T08:53:33.676Z,3.86
2019-01-07T08:54:33.686Z,3.97
2019-01-07T08:55:41.500Z,3.93
2019-01-07T08:56:33.716Z,4
2019-01-07T08:57:33.731Z,3.96
2019-01-07T08:58:33.749Z,3.88
2019-01-07T08:59:48.417Z,3.88
2019-01-07T09:00:33.768Z,3.94
2019-01-07T09:01:33.780Z,3.88
2019-01-07T09:02:33.818Z,3.91
2019-01-07T09:04:33.822Z,4
2019-01-07T09:05:33.835Z,3.94
2019-01-07T09:06:33.851Z,3.97
2019-01-07T09:07:33.866Z,4.02
2019-01-07T09:09:48.556Z,4.02
2019-01-07T09:10:33.905Z,4.02
2019-01-07T09:11:33.918Z,4.15
2019-01-07T09:12:48.595Z,4.12
2019-01-07T09:13:33.947Z,4.18
2019-01-07T09:14:41.488Z,4.16
2019-01-07T09:15:48.637Z,4.12
2019-01-07T09:16:33.987Z,4.16
2019-01-07T09:17:34.005Z,4.11
2019-01-07T09:18:34.014Z,4.14
2019-01-07T09:19:34.389Z,4.08
2019-01-07T09:21:34.058Z,4.15
2019-01-07T09:22:34.074Z,4.18
2019-01-07T09:23:34.126Z,4.16
2019-01-07T09:24:38.582Z,4.08
2019-01-07T09:25:41.144Z,4.16
2019-01-07T09:26:34.125Z,4.24
2019-01-07T09:27:48.802Z,4.26
2019-01-07T09:28:34.158Z,4.15
2019-01-07T09:29:34.170Z,4.24
2019-01-07T09:30:34.180Z,4.27
2019-01-07T09:31:48.899Z,4.24
2019-01-07T09:32:34.210Z,4.27
2019-01-07T09:33:34.233Z,4.23
2019-01-07T09:34:34.469Z,4.36
2019-01-07T09:35:34.535Z,4.36
2019-01-07T09:36:34.678Z,4.34
2019-01-07T09:37:48.995Z,4.45
2019-01-07T09:38:34.758Z,4.47
2019-01-07T09:39:34.562Z,4.44
2019-01-07T09:40:34.357Z,4.44
2019-01-07T09:41:34.534Z,4.42
2019-01-07T09:43:34.629Z,4.47
2019-01-07T09:44:34.629Z,4.45
2019-01-07T09:45:34.572Z,4.45
2019-01-07T09:46:49.332Z,4.51
2019-01-07T09:48:34.652Z,4.51
2019-01-07T09:49:41.522Z,4.62
2019-01-07T09:50:34.461Z,4.52
2019-01-07T09:51:34.475Z,4.65
2019-01-07T09:52:34.490Z,4.62
2019-01-07T09:53:34.500Z,4.69
2019-01-07T09:54:41.289Z,4.72
2019-01-07T09:55:34.529Z,4.66
2019-01-07T09:57:34.561Z,4.75
2019-01-07T09:58:49.239Z,4.82
2019-01-07T09:59:42.142Z,4.8
2019-01-07T10:00:34.601Z,4.7
2019-01-07T10:01:34.620Z,4.77
2019-01-07T10:02:34.629Z,4.89
2019-01-07T10:03:34.644Z,4.86
2019-01-07T10:04:34.711Z,4.88
2019-01-07T10:05:34.676Z,4.88
2019-01-07T10:07:34.703Z,4.82
2019-01-07T10:08:34.717Z,4.94
2019-01-07T10:09:49.595Z,4.99
2019-01-07T10:10:34.746Z,4.97
2019-01-07T10:11:34.762Z,4.96
2019-01-07T10:12:34.777Z,5.07
2019-01-07T10:13:49.452Z,5.04
2019-01-07T10:14:34.801Z,5.03
2019-01-07T10:15:34.818Z,5.04
2019-01-07T10:16:34.832Z,5.02
2019-01-07T10:17:34.847Z,4.94
2019-01-07T10:18:49.522Z,4.91
2019-01-07T10:19:34.879Z,5.09
2019-01-07T10:20:34.968Z,4.94
2019-01-07T10:21:34.906Z,5.06
2019-01-07T10:22:36.023Z,4.97
2019-01-07T10:23:34.986Z,4.97
2019-01-07T10:24:34.949Z,5.06
2019-01-07T10:26:34.975Z,5.12
2019-01-07T10:27:34.988Z,5.18
2019-01-07T10:28:35.003Z,5.18
2019-01-07T10:30:35.179Z,5.24
2019-01-07T10:31:35.051Z,5.15
2019-01-07T10:32:50.615Z,5.1
2019-01-07T10:33:35.076Z,5.1
2019-01-07T10:34:49.753Z,5.1
2019-01-07T10:35:35.108Z,5.15
2019-01-07T10:36:35.121Z,5.1
2019-01-07T10:37:35.133Z,5.03
2019-01-07T10:38:35.154Z,5.13
2019-01-07T10:39:35.161Z,5.2
2019-01-07T10:40:35.176Z,5.17
2019-01-07T10:41:35.195Z,5.24
2019-01-07T10:43:35.219Z,5.3
2019-01-07T10:44:49.899Z,5.2
2019-01-07T10:45:49.913Z,5.27
2019-01-07T10:46:35.262Z,5.31
2019-01-07T10:47:35.281Z,5.36
2019-01-07T10:48:35.292Z,5.35
2019-01-07T10:49:35.305Z,5.33
2019-01-07T10:50:49.985Z,5.3
2019-01-07T10:51:35.336Z,5.31
2019-01-07T10:52:35.350Z,5.4
2019-01-07T10:53:35.367Z,5.39
2019-01-07T10:54:35.378Z,5.35
2019-01-07T10:55:35.394Z,5.43
2019-01-07T10:56:35.408Z,5.49
2019-01-07T10:57:35.423Z,5.45
2019-01-07T10:59:35.452Z,5.42
2019-01-07T11:00:35.467Z,5.49
2019-01-07T11:02:35.502Z,5.46
2019-01-07T11:03:35.513Z,5.38
2019-01-07T11:04:35.527Z,5.4
2019-01-07T11:05:35.542Z,5.45
2019-01-07T11:06:50.217Z,5.48
2019-01-07T11:07:35.576Z,5.48
2019-01-07T11:08:35.590Z,5.48
2019-01-07T11:09:35.599Z,5.51
2019-01-07T11:10:35.613Z,5.46
2019-01-07T11:11:35.646Z,5.54
2019-01-07T11:12:35.640Z,5.54
2019-01-07T11:13:35.410Z,5.63
2019-01-07T11:14:35.677Z,5.57
2019-01-07T11:15:35.687Z,5.56
2019-01-07T11:16:35.703Z,5.56
2019-01-07T11:17:35.715Z,5.64
2019-01-07T11:18:50.393Z,5.54
2019-01-07T11:19:43.372Z,5.6
2019-01-07T11:20:35.766Z,5.63
2019-01-07T11:21:50.439Z,5.63
2019-01-07T11:22:35.800Z,5.65
2019-01-07T11:23:35.815Z,5.61
2019-01-07T11:24:35.870Z,5.74
2019-01-07T11:25:35.837Z,5.71
2019-01-07T11:27:35.871Z,5.74
2019-01-07T11:28:35.878Z,5.64
2019-01-07T11:30:35.914Z,5.82
2019-01-07T11:31:35.926Z,5.79
2019-01-07T11:32:35.943Z,5.81
2019-01-07T11:33:35.956Z,5.85
2019-01-07T11:34:50.635Z,5.93
2019-01-07T11:35:35.983Z,5.89
2019-01-07T11:36:35.999Z,5.81
2019-01-07T11:37:36.014Z,5.86
2019-01-07T11:38:36.030Z,5.83
2019-01-07T11:39:36.042Z,5.9
2019-01-07T11:40:36.060Z,5.9
2019-01-07T11:41:36.073Z,5.85
2019-01-07T11:43:36.101Z,5.86
2019-01-07T11:44:50.794Z,5.85
2019-01-07T11:47:36.167Z,5.82
2019-01-07T11:48:50.846Z,5.82
2019-01-07T11:49:36.202Z,5.82
2019-01-07T11:50:36.209Z,5.79
2019-01-07T11:51:36.224Z,5.82
2019-01-07T11:52:36.285Z,5.81
2019-01-07T11:53:50.919Z,5.82
2019-01-07T11:54:36.281Z,5.9
2019-01-07T11:55:36.291Z,5.94
2019-01-07T11:56:36.306Z,5.9
2019-01-07T11:57:36.317Z,5.9
2019-01-07T11:59:36.350Z,5.96
2019-01-07T12:00:36.357Z,6
2019-01-07T12:01:36.376Z,6.04
2019-01-07T12:03:36.158Z,5.96
2019-01-07T12:04:37.479Z,5.96
2019-01-07T12:05:36.439Z,5.96
2019-01-07T12:06:51.110Z,6.03
2019-01-07T12:07:36.463Z,6.01
2019-01-07T12:08:36.477Z,6.11
2019-01-07T12:09:55.560Z,6.14
2019-01-07T12:10:36.508Z,6.06
2019-01-07T12:11:36.523Z,6.14
2019-01-07T12:12:36.537Z,6.11
2019-01-07T12:13:36.552Z,6.06
2019-01-07T12:14:36.570Z,6.11
2019-01-07T12:15:36.582Z,6.11
2019-01-07T12:16:36.599Z,6.17
2019-01-07T12:18:36.633Z,6.18
2019-01-07T12:19:36.648Z,6.18
2019-01-07T12:20:36.659Z,6.15
2019-01-07T12:21:36.678Z,6.25
2019-01-07T12:22:36.698Z,6.22
2019-01-07T12:23:51.446Z,6.27
2019-01-07T12:24:36.826Z,6.22
2019-01-07T12:25:51.396Z,6.28
2019-01-07T12:26:36.748Z,6.22
2019-01-07T12:28:36.802Z,6.21
2019-01-07T12:29:36.838Z,6.3
2019-01-07T12:30:36.832Z,6.25
2019-01-07T12:31:36.877Z,6.18
2019-01-07T12:32:36.604Z,6.31
2019-01-07T12:33:36.928Z,6.27
2019-01-07T12:34:36.971Z,6.31
2019-01-07T12:35:37.718Z,6.28
2019-01-07T12:36:36.934Z,6.28
2019-01-07T12:37:51.596Z,6.38
2019-01-07T12:38:36.992Z,6.28
2019-01-07T12:39:36.953Z,6.33
2019-01-07T12:40:36.960Z,6.28
2019-01-07T12:41:53.313Z,6.3
2019-01-07T12:42:37.002Z,6.3
2019-01-07T12:43:37.054Z,6.3
2019-01-07T12:44:37.081Z,6.44
2019-01-07T12:45:37.081Z,6.46
2019-01-07T12:46:37.202Z,6.41
2019-01-07T12:47:37.163Z,6.46
2019-01-07T12:48:37.135Z,6.41
2019-01-07T12:49:37.195Z,6.48
2019-01-07T12:51:37.134Z,6.44
2019-01-07T12:52:37.147Z,6.48
2019-01-07T12:53:37.180Z,6.36
2019-01-07T12:54:36.930Z,6.41
2019-01-07T12:55:37.205Z,6.51
2019-01-07T12:56:51.871Z,6.56
2019-01-07T12:57:37.225Z,6.51
2019-01-07T12:58:37.239Z,6.55
2019-01-07T12:59:37.253Z,6.61
2019-01-07T13:00:41.249Z,6.61
2019-01-07T13:01:37.290Z,6.59
2019-01-07T13:02:37.300Z,6.62
2019-01-07T13:03:37.422Z,6.74
2019-01-07T13:04:37.346Z,6.71
2019-01-07T13:05:37.350Z,6.8
2019-01-07T13:07:52.040Z,6.74
2019-01-07T13:08:52.055Z,6.74
2019-01-07T13:09:52.069Z,6.87
2019-01-07T13:10:37.424Z,6.81
2019-01-07T13:11:37.442Z,6.85
2019-01-07T13:12:37.457Z,6.81
2019-01-07T13:13:37.466Z,6.79
2019-01-07T13:14:37.483Z,6.74
2019-01-07T13:15:37.498Z,6.81
2019-01-07T13:16:37.512Z,6.74
2019-01-07T13:17:37.528Z,6.76
2019-01-07T13:18:37.544Z,6.88
2019-01-07T13:19:37.559Z,6.94
2019-01-07T13:20:37.572Z,6.91
2019-01-07T13:21:52.256Z,6.84
2019-01-07T13:22:37.688Z,6.94
2019-01-07T13:23:52.284Z,6.92
2019-01-07T13:24:37.636Z,6.77
2019-01-07T13:25:43.556Z,6.88
2019-01-07T13:26:37.670Z,6.85
2019-01-07T13:27:37.689Z,6.85
2019-01-07T13:28:52.364Z,6.98
2019-01-07T13:29:37.713Z,6.87
2019-01-07T13:30:37.730Z,6.97
2019-01-07T13:31:37.743Z,6.91
2019-01-07T13:32:37.759Z,6.88
2019-01-07T13:33:37.778Z,6.94
2019-01-07T13:34:37.791Z,6.94
2019-01-07T13:35:37.877Z,6.91
2019-01-07T13:37:37.835Z,6.84
2019-01-07T13:38:37.852Z,6.84
2019-01-07T13:39:37.917Z,6.84
2019-01-07T13:40:37.879Z,6.77
2019-01-07T13:41:52.559Z,6.85
2019-01-07T13:42:37.912Z,6.77
2019-01-07T13:43:37.925Z,6.85
2019-01-07T13:44:52.608Z,6.76
2019-01-07T13:45:37.966Z,6.85
2019-01-07T13:46:37.970Z,6.95
2019-01-07T13:47:38.174Z,6.85
2019-01-07T13:48:38.008Z,6.88
2019-01-07T13:49:38.018Z,6.97
2019-01-07T13:50:38.034Z,6.91
2019-01-07T13:51:38.060Z,6.88
2019-01-07T13:52:38.064Z,6.89
2019-01-07T13:53:38.077Z,6.88
2019-01-07T13:54:38.099Z,6.88
2019-01-07T13:57:52.803Z,6.85
2019-01-07T13:58:38.160Z,6.84
2019-01-07T13:59:38.174Z,6.81
2019-01-07T14:00:52.850Z,6.79
2019-01-07T14:01:38.220Z,6.8
2019-01-07T14:02:38.220Z,6.84
2019-01-07T14:03:38.243Z,6.77
2019-01-07T14:04:38.258Z,6.81
2019-01-07T14:05:38.263Z,6.85
2019-01-07T14:06:38.288Z,6.84
2019-01-07T14:07:38.300Z,6.85
2019-01-07T14:08:38.313Z,6.85
2019-01-07T14:09:38.324Z,6.85
2019-01-07T14:10:38.340Z,6.81
2019-01-07T14:11:38.354Z,6.87
2019-01-07T14:12:53.034Z,6.73
2019-01-07T14:13:38.388Z,6.71
2019-01-07T14:14:38.406Z,6.79
2019-01-07T14:15:38.423Z,6.71
2019-01-07T14:16:53.103Z,6.74
2019-01-07T14:17:38.451Z,6.76
2019-01-07T14:18:38.465Z,6.84
2019-01-07T14:19:38.572Z,6.79
2019-01-07T14:20:38.495Z,6.81
2019-01-07T14:21:38.509Z,6.79
2019-01-07T14:22:38.529Z,6.76
2019-01-07T14:23:38.543Z,6.77
2019-01-07T14:24:38.556Z,6.91